createdAt,value
2023-02-06T00:03:51.092Z,99467.03
2023-02-06T00:13:57.467Z,99460.09
2023-02-06T00:24:05.033Z,99472.97
2023-02-06T00:34:11.326Z,99499.69
2023-02-06T00:44:17.684Z,99483.84
2023-02-06T00:54:24.038Z,99517.34
2023-02-06T01:04:29.276Z,99470.19
2023-02-06T01:14:35.712Z,99436.59
2023-02-06T01:24:41.988Z,99436.78
2023-02-06T01:34:48.261Z,99411.22
2023-02-06T01:45:22.525Z,99394.81
2023-02-06T01:55:29.076Z,99353.28
2023-02-06T02:05:36.090Z,99303.97
2023-02-06T02:15:42.569Z,99297.97
2023-02-06T02:26:07.420Z,99260.91
2023-02-06T02:36:35.746Z,99263.25
2023-02-06T02:46:44.968Z,99224.50
2023-02-06T02:56:51.753Z,99194.66
2023-02-06T03:07:08.684Z,99211.91
2023-02-06T03:17:17.612Z,99199.06
2023-02-06T03:27:24.075Z,99215.87
2023-02-06T03:37:30.906Z,99204.72
2023-02-06T03:47:38.030Z,99236.66
2023-02-06T03:57:46.720Z,99209.16
2023-02-06T04:07:55.051Z,99230.59
2023-02-06T04:18:02.020Z,99200.78
2023-02-06T04:28:08.741Z,99214.41
2023-02-06T04:38:15.092Z,99209.34
2023-02-06T04:48:21.444Z,99200.41
2023-02-06T04:58:27.790Z,99209.81
2023-02-06T05:08:34.110Z,99221.16
2023-02-06T05:18:41.124Z,99213.16
2023-02-06T05:28:47.964Z,99229.22
2023-02-06T05:38:54.544Z,99218.75
2023-02-06T05:49:00.854Z,99187.94
2023-02-06T05:59:07.653Z,99143.25
2023-02-06T06:09:13.955Z,99111.44
2023-02-06T06:19:20.370Z,99088.63
2023-02-06T06:29:27.267Z,99094.25
2023-02-06T06:39:33.551Z,99091.41
2023-02-06T06:49:40.203Z,99064.69
2023-02-06T06:59:46.525Z,99047.72
2023-02-06T07:09:52.770Z,99023.22
2023-02-06T07:19:59.159Z,98987.50
2023-02-06T07:30:06.659Z,98988.78
2023-02-06T07:40:13.714Z,98992.66
2023-02-06T07:50:20.095Z,99014.00
2023-02-06T08:00:26.425Z,99029.06
2023-02-06T08:10:33.369Z,99001.31
2023-02-06T08:20:39.704Z,99018.00
2023-02-06T08:30:46.224Z,99008.50
2023-02-06T08:40:52.582Z,99049.81
2023-02-06T08:51:06.421Z,99041.25
2023-02-06T09:01:15.646Z,99111.44
2023-02-06T09:11:23.908Z,99397.88
2023-02-06T09:21:32.124Z,99520.41
2023-02-06T09:31:40.500Z,99635.87
2023-02-06T09:42:00.329Z,99737.41
2023-02-06T09:52:33.336Z,99637.63
2023-02-06T10:02:42.590Z,99689.88
2023-02-06T10:13:00.956Z,99805.03
2023-02-06T10:23:14.035Z,99743.09
2023-02-06T10:33:26.008Z,99836.69
2023-02-06T10:43:38.468Z,99921.16
2023-02-06T10:53:59.275Z,99931.44
2023-02-06T11:04:28.331Z,99895.25
2023-02-06T11:14:38.779Z,99800.31
2023-02-06T11:25:00.856Z,99853.31
2023-02-06T11:35:40.803Z,99813.03
2023-02-06T11:45:49.350Z,99806.88
2023-02-06T11:56:18.245Z,99850.63
2023-02-06T12:06:30.762Z,99892.06
2023-02-06T12:16:39.824Z,99908.09
2023-02-06T12:26:46.741Z,99884.53
2023-02-06T12:37:12.536Z,99878.28
2023-02-06T12:47:30.305Z,99905.12
2023-02-06T12:57:38.303Z,99926.06
2023-02-06T13:07:49.567Z,99921.03
2023-02-06T13:17:56.945Z,99945.09
2023-02-06T13:28:23.552Z,99956.44
2023-02-06T13:38:38.206Z,99910.63
2023-02-06T13:49:13.320Z,99903.66
2023-02-06T13:59:24.799Z,99902.87
2023-02-06T14:10:06.393Z,99900.06
2023-02-06T14:20:21.849Z,99913.56
2023-02-06T14:30:30.173Z,99915.72
2023-02-06T14:40:40.802Z,99909.41
2023-02-06T14:50:56.362Z,99924.97
2023-02-06T15:01:18.094Z,99942.34
2023-02-06T15:11:26.886Z,99947.00
2023-02-06T15:21:33.171Z,99959.03
2023-02-06T15:31:39.553Z,99968.34
2023-02-06T15:41:48.848Z,99967.12
2023-02-06T15:51:56.233Z,99974.53
2023-02-06T16:02:05.144Z,99993.63
2023-02-06T16:12:11.866Z,100000.66
2023-02-06T16:22:19.895Z,99990.25
2023-02-06T16:32:30.330Z,99986.63
2023-02-06T16:42:39.392Z,100003.84
2023-02-06T16:52:54.153Z,100014.28
2023-02-06T17:03:01.728Z,100035.06
2023-02-06T17:13:10.128Z,100031.94
2023-02-06T17:23:16.962Z,100035.06
2023-02-06T17:33:23.360Z,100038.13
2023-02-06T17:43:31.024Z,100022.94
2023-02-06T17:53:37.407Z,100007.44
2023-02-06T18:03:44.554Z,100012.50
2023-02-06T18:13:51.715Z,100015.62
2023-02-06T18:23:59.323Z,99989.31
2023-02-06T18:34:08.965Z,99985.63
2023-02-06T18:44:16.355Z,99973.41
2023-02-06T18:54:22.758Z,99986.31
2023-02-06T19:04:29.089Z,99968.00
2023-02-06T19:14:35.744Z,99955.59
2023-02-06T19:24:43.640Z,99940.19
2023-02-06T19:34:50.135Z,99945.50
2023-02-06T19:44:56.596Z,99956.53
2023-02-06T19:55:03.202Z,99947.63
2023-02-06T20:05:09.950Z,99921.88
2023-02-06T20:15:16.710Z,99926.09
2023-02-06T20:25:23.244Z,99901.22
2023-02-06T20:35:29.977Z,99835.78
2023-02-06T20:45:36.479Z,99855.72
2023-02-06T20:55:45.512Z,99832.63
2023-02-06T21:06:01.824Z,99814.72
2023-02-06T21:16:09.257Z,99793.22
2023-02-06T21:26:18.266Z,99802.44
2023-02-06T21:36:25.193Z,99820.00
2023-02-06T21:46:32.141Z,99791.41
2023-02-06T21:56:41.838Z,99809.16
2023-02-06T22:06:49.115Z,99797.97
2023-02-06T22:16:55.584Z,99816.44
2023-02-06T22:27:01.913Z,99816.09
2023-02-06T22:37:08.229Z,99816.66
2023-02-06T22:47:14.524Z,99853.78
2023-02-06T22:57:20.918Z,99854.41
2023-02-06T23:07:27.192Z,99879.87
2023-02-06T23:17:33.720Z,99845.16
2023-02-06T23:27:40.034Z,99890.00
2023-02-06T23:37:46.370Z,99852.09
2023-02-06T23:47:53.395Z,99867.06
2023-02-06T23:57:59.715Z,99844.25
